This is the latest recevied weather packets stored in our database for station/object AD4CG. If no packets are shown the sender has not sent any weather packets the latest 10 day(s).
| Time | Temp. | Humidity | Pressure | Rain* | Wind** | Luminosity | Snow |
|---|---|---|---|---|---|---|---|
| 1777074023 | 25.56° C | 43% | 1008.8 hPa | 0 mm | - | - | - |
| 1777073084 | 26.11° C | 33% | 1008.5 hPa | 0 mm | - | - | - |
| 1777072148 | 26.67° C | 32% | 1008.5 hPa | 0 mm | - | - | - |
| 1777071835 | 27.22° C | 29% | 1008.5 hPa | 0 mm | - | - | - |
| 1777070586 | 28.33° C | 26% | 1008.5 hPa | 0 mm | - | - | - |
| 1777069336 | 28.33° C | 20% | 1008.5 hPa | 0 mm | - | - | - |
| 1777066528 | 28.89° C | 17% | 1008.5 hPa | 0 mm | - | - | - |
| 1777062447 | 30° C | 17% | 1008.8 hPa | 0 mm | - | - | - |
| 1777060579 | 29.44° C | 17% | 1009.1 hPa | 0 mm | - | - | - |
| 1777056168 | 29.44° C | 20% | 1010.2 hPa | 0 mm | - | - | - |
| 1777055855 | 28.89° C | 19% | 1010.2 hPa | 0 mm | - | - | - |
| 1777053624 | 28.89° C | 22% | 1010.8 hPa | 0 mm | - | - | - |
| 1777043561 | 24.44° C | 50% | 1012.5 hPa | 0 mm | - | - | - |
| 1777042916 | 23.89° C | 48% | 1012.9 hPa | 0 mm | - | - | - |
| 1777040719 | 22.78° C | 52% | 1013.2 hPa | 0 mm | - | - | - |
| 1777039151 | 21.67° C | 58% | 1013.5 hPa | 0 mm | - | - | - |
| 1777035711 | 18.89° C | 67% | 1013.5 hPa | 0 mm | - | - | - |
| 1777031915 | 16.11° C | 81% | 1013.5 hPa | 0 mm | - | - | - |
| 1777031290 | 15.56° C | 82% | 1013.5 hPa | 0 mm | - | - | - |
| 1777030979 | 15.56° C | 83% | 1013.5 hPa | 0 mm | - | - | - |
| 1777028791 | 15° C | 84% | 1013.5 hPa | 0 mm | - | - | - |
| 1777028165 | 15° C | 83% | 1013.5 hPa | 0 mm | - | - | - |
| 1777026912 | 15.56° C | 81% | 1013.2 hPa | 0 mm | - | - | - |
| 1777026293 | 15.56° C | 81% | 1013.2 hPa | 0 mm | - | - | - |
| 1777018437 | 16.67° C | 73% | 1012.9 hPa | 0 mm | - | - | - |
* Rain latest hour (hover to see other rain measurements)
** Current wind speed in m/s (hover to see current wind gust speed)